createdAt,value
2023-05-30T00:00:45.230Z,5.15
2023-05-30T00:01:48.198Z,5.60
2023-05-30T00:02:51.392Z,5.65
2023-05-30T00:03:55.052Z,5.30
2023-05-30T00:04:58.510Z,6.00
2023-05-30T00:06:01.614Z,6.03
2023-05-30T00:07:04.755Z,5.70
2023-05-30T00:08:07.849Z,5.70
2023-05-30T00:09:11.013Z,5.60
2023-05-30T00:10:14.552Z,5.20
2023-05-30T00:11:19.641Z,6.00
2023-05-30T00:12:22.915Z,5.28
2023-05-30T00:13:26.060Z,5.68
2023-05-30T00:14:28.969Z,6.00
2023-05-30T00:15:32.882Z,6.05
2023-05-30T00:16:36.948Z,5.57
2023-05-30T00:17:40.069Z,6.03
2023-05-30T00:18:43.111Z,5.70
2023-05-30T00:19:47.036Z,5.55
2023-05-30T00:20:50.744Z,6.32
2023-05-30T00:21:54.017Z,5.45
2023-05-30T00:23:02.168Z,5.95
2023-05-30T00:24:05.893Z,5.12
2023-05-30T00:25:11.103Z,5.25
2023-05-30T00:26:14.536Z,5.12
2023-05-30T00:27:18.942Z,5.40
2023-05-30T00:28:21.867Z,6.25
2023-05-30T00:29:24.631Z,5.75
2023-05-30T00:30:27.638Z,5.37
2023-05-30T00:31:31.869Z,5.55
2023-05-30T00:32:36.188Z,5.32
2023-05-30T00:33:38.958Z,5.18
2023-05-30T00:34:41.871Z,5.80
2023-05-30T00:35:45.054Z,5.10
2023-05-30T00:36:47.947Z,5.57
2023-05-30T00:37:50.933Z,5.80
2023-05-30T00:38:53.840Z,5.80
2023-05-30T00:39:56.793Z,5.50
2023-05-30T00:41:00.049Z,5.93
2023-05-30T00:42:04.586Z,5.50
2023-05-30T00:43:07.543Z,5.70
2023-05-30T00:44:10.503Z,5.10
2023-05-30T00:45:13.612Z,6.05
2023-05-30T00:46:16.942Z,5.70
2023-05-30T00:47:20.053Z,5.68
2023-05-30T00:48:24.591Z,5.72
2023-05-30T00:49:28.393Z,5.35
2023-05-30T00:50:32.390Z,5.07
2023-05-30T00:51:36.299Z,5.12
2023-05-30T00:52:39.421Z,5.75
2023-05-30T00:53:43.364Z,5.20
2023-05-30T00:54:47.333Z,5.37
2023-05-30T00:55:51.260Z,5.10
2023-05-30T00:56:55.280Z,4.82
2023-05-30T00:57:58.515Z,5.15
2023-05-30T00:59:03.504Z,5.68
2023-05-30T01:00:07.721Z,5.35
2023-05-30T01:01:11.063Z,4.93
2023-05-30T01:02:14.501Z,4.62
2023-05-30T01:03:23.790Z,5.12
2023-05-30T01:04:27.018Z,4.68
2023-05-30T01:05:30.127Z,5.32
2023-05-30T01:06:33.904Z,5.28
2023-05-30T01:07:36.773Z,5.00
2023-05-30T01:08:39.757Z,4.70
2023-05-30T01:09:43.094Z,5.60
2023-05-30T01:10:48.513Z,5.00
2023-05-30T01:12:00.079Z,5.53
2023-05-30T01:14:30.600Z,4.82
2023-05-30T01:15:42.581Z,5.43
2023-05-30T01:16:51.268Z,4.97
2023-05-30T01:18:04.809Z,5.10
2023-05-30T01:19:48.560Z,5.35
2023-05-30T01:20:56.121Z,5.43
2023-05-30T01:22:34.584Z,5.90
2023-05-30T01:23:56.743Z,4.80
2023-05-30T01:25:24.356Z,5.47
2023-05-30T01:26:47.975Z,4.60
2023-05-30T01:28:06.670Z,5.40
2023-05-30T01:29:19.090Z,4.95
2023-05-30T01:30:25.906Z,4.65
2023-05-30T01:31:29.286Z,5.30
2023-05-30T01:32:32.943Z,5.07
2023-05-30T01:33:38.167Z,5.30
2023-05-30T01:34:41.814Z,4.82
2023-05-30T01:35:48.409Z,4.97
2023-05-30T01:36:51.308Z,4.95
2023-05-30T01:37:54.283Z,5.07
2023-05-30T01:38:57.156Z,5.00
2023-05-30T01:40:00.177Z,4.95
2023-05-30T01:41:05.980Z,5.28
2023-05-30T01:42:27.597Z,4.93
2023-05-30T01:43:45.224Z,4.75
2023-05-30T01:45:12.608Z,4.70
2023-05-30T01:46:27.097Z,5.20
2023-05-30T01:47:36.960Z,4.57
2023-05-30T01:48:54.931Z,5.07
2023-05-30T01:50:22.708Z,4.93
2023-05-30T01:51:36.021Z,4.68
2023-05-30T01:52:45.796Z,5.00
2023-05-30T01:53:52.009Z,4.90
2023-05-30T01:55:04.625Z,4.87
2023-05-30T01:56:10.874Z,5.50
2023-05-30T01:57:16.711Z,5.10
2023-05-30T01:58:21.500Z,4.68
2023-05-30T01:59:27.151Z,5.22
2023-05-30T02:00:31.994Z,5.20
2023-05-30T02:01:35.541Z,4.97
2023-05-30T02:02:38.791Z,5.25
2023-05-30T02:03:41.961Z,4.90
2023-05-30T02:04:44.967Z,5.03
2023-05-30T02:05:48.056Z,4.87
2023-05-30T02:06:51.061Z,5.37
2023-05-30T02:07:53.991Z,5.22
2023-05-30T02:08:57.213Z,4.97
2023-05-30T02:10:00.240Z,4.97
2023-05-30T02:11:03.218Z,5.15
2023-05-30T02:12:07.340Z,5.05
2023-05-30T02:13:10.722Z,5.20
2023-05-30T02:14:14.136Z,5.28
2023-05-30T02:15:16.996Z,5.10
2023-05-30T02:16:19.990Z,5.07
2023-05-30T02:17:23.829Z,5.60
2023-05-30T02:18:28.801Z,5.18
2023-05-30T02:19:31.786Z,5.10
2023-05-30T02:20:34.771Z,4.93
2023-05-30T02:21:38.482Z,4.85
2023-05-30T02:22:41.521Z,4.62
2023-05-30T02:23:44.433Z,5.10
2023-05-30T02:24:47.383Z,4.87
2023-05-30T02:25:50.432Z,5.43
2023-05-30T02:26:53.367Z,4.95
2023-05-30T02:27:56.408Z,5.28
2023-05-30T02:28:59.434Z,5.00
2023-05-30T02:30:02.555Z,5.12
2023-05-30T02:31:05.483Z,5.07
2023-05-30T02:32:09.030Z,4.90
2023-05-30T02:33:12.075Z,5.22
2023-05-30T02:34:15.033Z,5.25
2023-05-30T02:35:17.982Z,5.07
2023-05-30T02:36:20.951Z,5.00
2023-05-30T02:37:23.793Z,4.97
2023-05-30T02:38:26.870Z,5.20
2023-05-30T02:39:29.723Z,5.62
2023-05-30T02:40:32.720Z,5.40
2023-05-30T02:41:38.020Z,5.87
2023-05-30T02:42:41.276Z,5.12
2023-05-30T02:43:44.900Z,4.68
2023-05-30T02:44:47.797Z,5.70
2023-05-30T02:45:50.921Z,4.95
2023-05-30T02:46:53.817Z,4.72
2023-05-30T02:47:56.912Z,4.78
2023-05-30T02:48:59.791Z,5.53
2023-05-30T02:50:02.975Z,4.55
2023-05-30T02:51:06.081Z,4.97
2023-05-30T02:52:10.092Z,5.03
2023-05-30T02:53:12.989Z,4.80
2023-05-30T02:54:15.905Z,5.72
2023-05-30T02:55:18.861Z,4.50
2023-05-30T02:56:28.934Z,5.00
2023-05-30T02:57:31.893Z,4.78
2023-05-30T02:58:34.840Z,5.28
2023-05-30T02:59:37.773Z,4.70
2023-05-30T03:00:41.525Z,5.28
2023-05-30T03:01:44.808Z,5.07
2023-05-30T03:02:47.986Z,5.32
2023-05-30T03:03:50.964Z,5.30
2023-05-30T03:04:53.947Z,5.62
2023-05-30T03:05:58.795Z,5.22
2023-05-30T03:07:02.720Z,4.75
2023-05-30T03:08:14.302Z,5.07
2023-05-30T03:09:22.129Z,4.80
2023-05-30T03:10:25.039Z,5.20
2023-05-30T03:11:27.934Z,4.93
2023-05-30T03:12:31.008Z,4.82
2023-05-30T03:13:34.029Z,5.18
2023-05-30T03:14:37.054Z,5.20
2023-05-30T03:15:40.547Z,5.15
2023-05-30T03:16:43.589Z,4.90
2023-05-30T03:17:46.636Z,5.35
2023-05-30T03:18:52.887Z,5.12
2023-05-30T03:19:56.038Z,4.95
2023-05-30T03:20:59.363Z,5.15
2023-05-30T03:22:02.949Z,4.80
2023-05-30T03:23:05.852Z,4.60
2023-05-30T03:24:08.832Z,4.85
2023-05-30T03:25:13.533Z,5.07
2023-05-30T03:26:17.061Z,4.70
2023-05-30T03:27:19.977Z,5.05
2023-05-30T03:28:22.947Z,5.50
2023-05-30T03:29:25.991Z,5.45
2023-05-30T03:30:29.080Z,5.50
2023-05-30T03:31:32.290Z,5.20
2023-05-30T03:32:35.307Z,5.35
2023-05-30T03:33:38.228Z,5.03
2023-05-30T03:34:41.212Z,5.43
2023-05-30T03:35:44.684Z,5.18
2023-05-30T03:36:48.455Z,5.65
2023-05-30T03:37:51.441Z,5.40
2023-05-30T03:38:58.004Z,4.97
2023-05-30T03:40:01.253Z,5.03
2023-05-30T03:41:04.466Z,5.05
2023-05-30T03:42:08.039Z,5.80
2023-05-30T03:43:10.990Z,5.10
2023-05-30T03:44:14.071Z,5.70
2023-05-30T03:45:17.037Z,5.07
2023-05-30T03:46:21.465Z,5.37
2023-05-30T03:47:24.376Z,5.00
2023-05-30T03:48:27.287Z,5.87
2023-05-30T03:49:30.175Z,5.12
2023-05-30T03:50:33.113Z,5.50
2023-05-30T03:51:37.444Z,5.15
2023-05-30T03:52:40.456Z,4.97
2023-05-30T03:53:43.786Z,4.80
2023-05-30T03:54:46.798Z,4.95
2023-05-30T03:55:49.632Z,5.18
2023-05-30T03:56:52.533Z,5.28
2023-05-30T03:57:55.646Z,5.28
2023-05-30T03:58:59.660Z,5.40
2023-05-30T04:00:02.569Z,4.57
2023-05-30T04:01:05.893Z,5.43
2023-05-30T04:02:08.904Z,5.03
2023-05-30T04:03:11.893Z,5.72
2023-05-30T04:04:14.854Z,5.30
2023-05-30T04:05:19.295Z,4.57
2023-05-30T04:06:22.171Z,5.03
2023-05-30T04:07:26.088Z,5.12
2023-05-30T04:08:29.104Z,5.05
2023-05-30T04:09:32.096Z,5.10
2023-05-30T04:10:34.976Z,5.20
2023-05-30T04:11:38.017Z,5.45
2023-05-30T04:12:41.895Z,5.32
2023-05-30T04:13:44.728Z,5.25
2023-05-30T04:14:47.724Z,5.00
2023-05-30T04:15:50.652Z,5.10
2023-05-30T04:16:53.512Z,5.15
2023-05-30T04:17:58.656Z,4.70
2023-05-30T04:19:01.724Z,5.22
2023-05-30T04:20:10.971Z,5.53
2023-05-30T04:21:14.242Z,4.57
2023-05-30T04:22:17.201Z,5.25
2023-05-30T04:23:20.195Z,5.80
2023-05-30T04:24:23.180Z,5.18
2023-05-30T04:25:26.055Z,4.82
2023-05-30T04:26:28.928Z,4.95
2023-05-30T04:27:33.364Z,5.60
2023-05-30T04:28:43.571Z,5.40
2023-05-30T04:29:47.728Z,5.37
2023-05-30T04:30:50.868Z,5.30
2023-05-30T04:31:53.722Z,5.03
2023-05-30T04:32:57.228Z,5.00
2023-05-30T04:34:01.179Z,4.60
2023-05-30T04:35:08.614Z,5.00
2023-05-30T04:36:11.659Z,5.75
2023-05-30T04:37:18.584Z,5.22
2023-05-30T04:38:21.575Z,5.12
2023-05-30T04:39:24.654Z,5.03
2023-05-30T04:40:29.493Z,5.25
2023-05-30T04:41:33.983Z,5.22
2023-05-30T04:42:36.937Z,4.82
2023-05-30T04:43:39.980Z,5.05
2023-05-30T04:44:42.899Z,5.37
2023-05-30T04:45:47.410Z,5.12
2023-05-30T04:46:50.483Z,5.60
2023-05-30T04:47:55.106Z,5.03
2023-05-30T04:49:02.708Z,5.35
2023-05-30T04:50:07.235Z,5.22
2023-05-30T04:51:10.134Z,5.35
2023-05-30T04:52:13.117Z,5.50
2023-05-30T04:53:20.602Z,5.07
2023-05-30T04:54:23.512Z,5.72
2023-05-30T04:55:26.503Z,5.32
2023-05-30T04:56:29.509Z,4.80
2023-05-30T04:57:32.672Z,4.93
2023-05-30T04:58:35.648Z,5.65
2023-05-30T04:59:38.718Z,5.37
2023-05-30T05:00:41.782Z,5.57
2023-05-30T05:01:45.671Z,5.43
2023-05-30T05:02:49.040Z,5.25
2023-05-30T05:03:52.626Z,5.28
2023-05-30T05:04:55.871Z,5.50
2023-05-30T05:05:58.863Z,5.47
2023-05-30T05:07:02.065Z,4.87
2023-05-30T05:08:05.073Z,5.37
2023-05-30T05:09:08.138Z,5.20
2023-05-30T05:10:11.977Z,5.55
2023-05-30T05:11:15.978Z,5.20
2023-05-30T05:12:18.843Z,5.78
2023-05-30T05:13:21.788Z,4.65
2023-05-30T05:14:24.883Z,5.28
2023-05-30T05:15:27.912Z,5.40
2023-05-30T05:16:30.805Z,6.12
2023-05-30T05:17:33.894Z,5.10
2023-05-30T05:18:36.832Z,5.53
2023-05-30T05:19:40.689Z,5.25
2023-05-30T05:20:43.678Z,5.65
2023-05-30T05:21:47.266Z,5.37
2023-05-30T05:22:50.227Z,5.68
2023-05-30T05:23:53.201Z,5.28
2023-05-30T05:24:56.497Z,5.57
2023-05-30T05:26:01.430Z,6.22
2023-05-30T05:27:04.580Z,4.90
2023-05-30T05:28:07.926Z,4.97
2023-05-30T05:29:11.132Z,4.90
2023-05-30T05:30:15.344Z,5.30
2023-05-30T05:31:18.469Z,5.12
2023-05-30T05:32:21.384Z,5.03
2023-05-30T05:33:24.233Z,5.40
2023-05-30T05:34:27.463Z,5.50
2023-05-30T05:35:30.337Z,5.78
2023-05-30T05:36:33.272Z,4.90
2023-05-30T05:37:36.217Z,5.62
2023-05-30T05:38:39.170Z,5.12
2023-05-30T05:39:42.030Z,5.32
2023-05-30T05:40:45.184Z,5.20
2023-05-30T05:41:48.083Z,4.85
2023-05-30T05:42:51.179Z,5.03
2023-05-30T05:43:53.943Z,5.78
2023-05-30T05:44:56.864Z,5.37
2023-05-30T05:45:59.886Z,5.30
2023-05-30T05:47:02.925Z,5.43
2023-05-30T05:48:06.197Z,5.00
2023-05-30T05:49:09.223Z,5.35
2023-05-30T05:50:12.266Z,5.03
2023-05-30T05:51:15.072Z,5.55
2023-05-30T05:52:17.982Z,5.22
2023-05-30T05:53:21.499Z,5.12
2023-05-30T05:54:24.518Z,5.28
2023-05-30T05:55:27.426Z,5.50
2023-05-30T05:56:30.403Z,5.20
2023-05-30T05:57:33.398Z,4.87
2023-05-30T05:58:36.378Z,5.68
2023-05-30T05:59:39.362Z,5.35
2023-05-30T06:00:42.229Z,5.12
2023-05-30T06:01:45.303Z,5.43
2023-05-30T06:02:48.392Z,4.95
2023-05-30T06:03:51.626Z,4.80
2023-05-30T06:04:54.446Z,4.95
2023-05-30T06:05:58.092Z,4.97
2023-05-30T06:07:01.030Z,5.97
2023-05-30T06:08:04.415Z,5.10
2023-05-30T06:09:07.595Z,5.30
2023-05-30T06:10:10.942Z,4.87
2023-05-30T06:11:14.659Z,5.55
2023-05-30T06:12:17.933Z,5.40
2023-05-30T06:13:20.878Z,5.53
2023-05-30T06:14:24.070Z,5.30
2023-05-30T06:15:27.111Z,5.43
2023-05-30T06:16:30.185Z,5.45
2023-05-30T06:17:33.465Z,4.93
2023-05-30T06:18:36.710Z,5.30
2023-05-30T06:19:39.613Z,4.95
2023-05-30T06:20:42.564Z,5.40
2023-05-30T06:21:45.605Z,5.40
2023-05-30T06:22:48.417Z,5.32
2023-05-30T06:23:51.338Z,5.10
2023-05-30T06:24:54.304Z,5.43
2023-05-30T06:25:57.334Z,4.97
2023-05-30T06:27:00.208Z,5.30
2023-05-30T06:28:03.155Z,5.30
2023-05-30T06:29:06.414Z,5.53
2023-05-30T06:30:09.859Z,5.57
2023-05-30T06:31:12.793Z,4.70
2023-05-30T06:32:16.948Z,5.10
2023-05-30T06:33:22.058Z,5.30
2023-05-30T06:34:25.054Z,5.00
2023-05-30T06:35:27.946Z,5.10
2023-05-30T06:36:32.218Z,5.20
2023-05-30T06:37:35.646Z,5.40
2023-05-30T06:38:38.583Z,5.20
2023-05-30T06:39:41.520Z,4.70
2023-05-30T06:40:44.457Z,4.60
2023-05-30T06:41:48.627Z,4.95
2023-05-30T06:42:51.483Z,5.50
2023-05-30T06:43:54.427Z,5.18
2023-05-30T06:44:57.376Z,5.00
2023-05-30T06:46:00.965Z,4.90
2023-05-30T06:47:04.603Z,5.37
2023-05-30T06:48:07.855Z,5.40
2023-05-30T06:49:11.304Z,5.12
2023-05-30T06:50:14.546Z,5.10
2023-05-30T06:51:17.696Z,4.95
2023-05-30T06:52:20.510Z,5.10
2023-05-30T06:53:23.418Z,5.37
2023-05-30T06:54:26.706Z,4.60
2023-05-30T06:55:29.783Z,4.72
2023-05-30T06:56:32.567Z,5.12
2023-05-30T06:57:38.517Z,5.05
2023-05-30T06:58:41.384Z,5.03
2023-05-30T06:59:44.226Z,5.12
2023-05-30T07:00:47.587Z,4.87
2023-05-30T07:01:50.712Z,5.68
2023-05-30T07:02:53.835Z,6.05
2023-05-30T07:03:56.795Z,5.25
2023-05-30T07:04:59.742Z,5.65
2023-05-30T07:06:03.583Z,4.50
2023-05-30T07:07:07.537Z,5.37
2023-05-30T07:08:10.404Z,4.97
2023-05-30T07:09:13.244Z,4.82
2023-05-30T07:10:17.302Z,4.97
2023-05-30T07:11:20.394Z,5.47
2023-05-30T07:12:25.541Z,4.85
2023-05-30T07:13:29.214Z,5.72
2023-05-30T07:14:32.061Z,5.47
2023-05-30T07:15:34.977Z,5.97
2023-05-30T07:16:37.827Z,5.45
2023-05-30T07:17:41.700Z,6.18
2023-05-30T07:18:44.997Z,5.18
2023-05-30T07:19:47.917Z,5.80
2023-05-30T07:20:51.147Z,5.30
2023-05-30T07:21:54.179Z,4.90
2023-05-30T07:22:57.137Z,5.43
2023-05-30T07:23:59.920Z,5.53
2023-05-30T07:25:02.782Z,5.32
2023-05-30T07:26:05.794Z,4.70
2023-05-30T07:27:08.698Z,5.18
2023-05-30T07:28:12.681Z,5.07
2023-05-30T07:29:16.793Z,5.60
2023-05-30T07:30:19.658Z,5.28
2023-05-30T07:31:22.495Z,5.45
2023-05-30T07:32:25.877Z,5.05
2023-05-30T07:33:29.622Z,5.50
2023-05-30T07:34:32.830Z,4.93
2023-05-30T07:35:35.743Z,4.72
2023-05-30T07:36:38.741Z,5.18
2023-05-30T07:37:41.637Z,5.12
2023-05-30T07:38:44.598Z,5.00
2023-05-30T07:39:47.436Z,5.43
2023-05-30T07:40:50.492Z,5.12
2023-05-30T07:41:53.401Z,5.68
2023-05-30T07:42:56.492Z,4.90
2023-05-30T07:43:59.442Z,4.82
2023-05-30T07:45:02.438Z,5.22
2023-05-30T07:46:05.335Z,5.15
2023-05-30T07:47:08.427Z,5.00
2023-05-30T07:48:11.423Z,5.05
2023-05-30T07:49:14.419Z,4.12
2023-05-30T07:50:17.316Z,4.78
2023-05-30T07:51:22.010Z,4.82
2023-05-30T07:52:24.801Z,5.00
2023-05-30T07:53:27.764Z,4.65
2023-05-30T07:54:31.388Z,4.80
2023-05-30T07:55:34.305Z,5.03
2023-05-30T07:56:37.214Z,5.32
2023-05-30T07:57:40.365Z,4.90
2023-05-30T07:58:43.213Z,4.60
2023-05-30T07:59:46.413Z,5.37
2023-05-30T08:00:49.424Z,5.40
2023-05-30T08:01:52.326Z,5.45
2023-05-30T08:02:55.559Z,5.05
2023-05-30T08:03:58.489Z,5.30
2023-05-30T08:05:01.562Z,5.35
2023-05-30T08:06:04.537Z,5.60
2023-05-30T08:07:07.645Z,5.18
2023-05-30T08:08:10.509Z,5.10
2023-05-30T08:09:13.451Z,5.70
2023-05-30T08:10:16.658Z,5.00
2023-05-30T08:11:20.756Z,5.62
2023-05-30T08:12:26.257Z,5.05
2023-05-30T08:13:29.468Z,5.62
2023-05-30T08:14:33.757Z,4.90
2023-05-30T08:15:36.656Z,5.40
2023-05-30T08:16:41.026Z,5.35
2023-05-30T08:17:45.966Z,5.35
2023-05-30T08:18:49.020Z,5.62
2023-05-30T08:19:55.323Z,5.70
2023-05-30T08:20:58.466Z,5.00
2023-05-30T08:22:01.510Z,5.28
2023-05-30T08:23:05.059Z,4.90
2023-05-30T08:24:09.284Z,4.93
2023-05-30T08:25:12.443Z,5.35
2023-05-30T08:26:15.492Z,5.78
2023-05-30T08:27:18.890Z,4.80
2023-05-30T08:28:22.020Z,5.72
2023-05-30T08:29:24.956Z,5.82
2023-05-30T08:30:28.468Z,5.28
2023-05-30T08:31:31.346Z,5.72
2023-05-30T08:32:34.616Z,5.60
2023-05-30T08:33:37.786Z,5.35
2023-05-30T08:34:40.910Z,5.30
2023-05-30T08:35:43.949Z,5.37
2023-05-30T08:36:47.230Z,5.30
2023-05-30T08:37:50.139Z,5.65
2023-05-30T08:39:06.573Z,5.22
2023-05-30T08:40:17.444Z,5.47
2023-05-30T08:41:20.440Z,5.00
2023-05-30T08:42:24.355Z,6.07
2023-05-30T08:43:27.875Z,5.35
2023-05-30T08:44:30.894Z,4.90
2023-05-30T08:45:33.954Z,5.47
2023-05-30T08:46:46.506Z,4.72
2023-05-30T08:47:56.787Z,5.70
2023-05-30T08:49:00.209Z,5.32
2023-05-30T08:50:10.492Z,6.07
2023-05-30T08:51:14.923Z,5.57
2023-05-30T08:52:20.480Z,5.37
2023-05-30T08:53:37.780Z,6.03
2023-05-30T08:55:16.492Z,5.35
2023-05-30T08:56:44.460Z,5.82
2023-05-30T08:58:15.232Z,5.30
2023-05-30T08:59:23.123Z,5.35
2023-05-30T09:00:27.424Z,5.55
2023-05-30T09:01:31.317Z,4.85
2023-05-30T09:02:35.696Z,5.22
2023-05-30T09:03:44.033Z,5.40
2023-05-30T09:04:48.588Z,5.68
2023-05-30T09:05:52.926Z,5.45
2023-05-30T09:06:58.158Z,5.35
2023-05-30T09:08:02.593Z,5.35
2023-05-30T09:09:10.517Z,5.70
2023-05-30T09:10:13.710Z,5.70
2023-05-30T09:11:17.012Z,4.93
2023-05-30T09:12:20.005Z,6.10
2023-05-30T09:13:23.383Z,5.90
2023-05-30T09:14:26.459Z,5.97
2023-05-30T09:15:29.346Z,5.53
2023-05-30T09:16:32.583Z,5.70
2023-05-30T09:17:35.626Z,5.85
2023-05-30T09:18:38.580Z,5.65
2023-05-30T09:19:41.781Z,5.80
2023-05-30T09:20:45.294Z,5.50
2023-05-30T09:21:49.061Z,5.93
2023-05-30T09:22:52.398Z,5.97
2023-05-30T09:23:55.614Z,5.70
2023-05-30T09:25:01.870Z,6.18
2023-05-30T09:26:08.547Z,6.03
2023-05-30T09:27:11.488Z,5.93
2023-05-30T09:28:15.213Z,5.80
2023-05-30T09:29:18.292Z,6.60
2023-05-30T09:30:21.238Z,6.03
2023-05-30T09:31:25.097Z,6.00
2023-05-30T09:32:33.600Z,6.28
2023-05-30T09:33:52.707Z,5.97
2023-05-30T09:34:58.601Z,5.93
2023-05-30T09:36:01.755Z,6.05
2023-05-30T09:37:06.117Z,5.97
2023-05-30T09:38:09.041Z,6.03
2023-05-30T09:39:11.865Z,6.32
2023-05-30T09:40:18.494Z,6.72
2023-05-30T09:41:21.830Z,6.20
2023-05-30T09:42:24.659Z,6.28
2023-05-30T09:43:32.992Z,6.22
2023-05-30T09:44:35.929Z,6.93
2023-05-30T09:45:38.777Z,7.03
2023-05-30T09:46:41.684Z,6.18
2023-05-30T09:47:46.455Z,6.85
2023-05-30T09:48:50.397Z,6.37
2023-05-30T09:49:53.537Z,6.18
2023-05-30T09:51:02.835Z,6.32
2023-05-30T09:52:06.657Z,7.05
2023-05-30T09:53:09.480Z,6.80
2023-05-30T09:54:14.490Z,6.60
2023-05-30T09:55:17.753Z,6.80
2023-05-30T09:56:20.792Z,6.30
2023-05-30T09:57:26.737Z,6.70
2023-05-30T09:58:29.879Z,6.12
2023-05-30T09:59:34.974Z,6.32
2023-05-30T10:00:37.861Z,6.45
2023-05-30T10:01:52.617Z,6.40
2023-05-30T10:02:57.678Z,5.90
2023-05-30T10:04:00.724Z,5.90
2023-05-30T10:05:05.408Z,5.93
2023-05-30T10:06:17.778Z,6.22
2023-05-30T10:07:21.443Z,5.70
2023-05-30T10:08:24.356Z,5.72
2023-05-30T10:09:27.395Z,6.30
2023-05-30T10:10:30.349Z,5.85
2023-05-30T10:11:34.018Z,5.85
2023-05-30T10:12:37.379Z,5.70
2023-05-30T10:13:41.364Z,5.15
2023-05-30T10:14:46.099Z,5.80
2023-05-30T10:15:49.181Z,5.90
2023-05-30T10:17:00.816Z,5.25
2023-05-30T10:18:08.659Z,5.60
2023-05-30T10:19:17.658Z,5.65
2023-05-30T10:20:25.832Z,5.80
2023-05-30T10:21:34.266Z,5.40
2023-05-30T10:22:46.443Z,6.12
2023-05-30T10:23:49.475Z,5.65
2023-05-30T10:24:54.953Z,5.97
2023-05-30T10:25:58.101Z,5.95
2023-05-30T10:27:05.495Z,6.45
2023-05-30T10:28:11.261Z,5.68
2023-05-30T10:29:16.899Z,5.95
2023-05-30T10:30:31.710Z,5.62
2023-05-30T10:31:36.366Z,5.78
2023-05-30T10:32:58.655Z,6.05
2023-05-30T10:34:09.814Z,5.32
2023-05-30T10:35:16.597Z,5.50
2023-05-30T10:36:20.081Z,5.65
2023-05-30T10:37:23.034Z,5.45
2023-05-30T10:38:28.930Z,6.45
2023-05-30T10:39:45.340Z,5.28
2023-05-30T10:41:01.638Z,5.50
2023-05-30T10:42:23.651Z,5.43
2023-05-30T10:43:38.040Z,5.32
2023-05-30T10:44:48.090Z,5.47
2023-05-30T10:46:03.153Z,5.40
2023-05-30T10:47:34.974Z,5.90
2023-05-30T10:48:50.657Z,5.53
2023-05-30T10:49:57.716Z,4.95
2023-05-30T10:51:01.897Z,4.90
2023-05-30T10:52:11.418Z,5.20
2023-05-30T10:53:21.164Z,4.93
2023-05-30T10:54:24.163Z,5.10
2023-05-30T10:55:29.888Z,5.00
2023-05-30T10:56:42.736Z,5.47
2023-05-30T10:57:45.706Z,5.12
2023-05-30T10:58:48.662Z,5.43
2023-05-30T10:59:54.497Z,5.00
2023-05-30T11:01:21.900Z,5.40
2023-05-30T11:02:50.232Z,5.00
2023-05-30T11:04:10.101Z,4.68
2023-05-30T11:05:14.971Z,5.10
2023-05-30T11:06:18.484Z,5.78
2023-05-30T11:07:21.666Z,5.37
2023-05-30T11:08:24.595Z,5.22
2023-05-30T11:09:28.076Z,5.10
2023-05-30T11:10:31.507Z,5.45
2023-05-30T11:11:38.866Z,5.28
2023-05-30T11:12:46.923Z,5.18
2023-05-30T11:13:56.312Z,5.43
2023-05-30T11:15:00.592Z,4.70
2023-05-30T11:16:23.015Z,5.55
2023-05-30T11:17:34.977Z,5.72
2023-05-30T11:18:42.162Z,5.03
2023-05-30T11:19:52.701Z,5.12
2023-05-30T11:20:57.398Z,5.10
2023-05-30T11:22:02.883Z,4.70
2023-05-30T11:23:05.664Z,5.18
2023-05-30T11:24:18.440Z,4.70
2023-05-30T11:25:26.831Z,5.30
2023-05-30T11:26:53.451Z,4.78
2023-05-30T11:28:17.363Z,4.97
2023-05-30T11:29:56.948Z,4.62
2023-05-30T11:31:00.464Z,4.95
2023-05-30T11:32:09.888Z,5.35
2023-05-30T11:33:14.364Z,4.72
2023-05-30T11:34:17.452Z,4.87
2023-05-30T11:35:22.610Z,4.87
2023-05-30T11:36:25.610Z,4.78
2023-05-30T11:37:33.319Z,4.60
2023-05-30T11:38:36.321Z,4.80
2023-05-30T11:39:39.189Z,4.70
2023-05-30T11:40:45.034Z,5.22
2023-05-30T11:41:50.052Z,4.70
2023-05-30T11:42:53.942Z,4.22
2023-05-30T11:43:57.049Z,5.12
2023-05-30T11:45:00.133Z,4.57
2023-05-30T11:46:03.158Z,4.62
2023-05-30T11:48:24.033Z,4.60
2023-05-30T11:49:27.243Z,4.40
2023-05-30T11:50:30.367Z,5.10
2023-05-30T11:51:34.110Z,4.55
2023-05-30T11:52:43.513Z,4.50
2023-05-30T11:53:47.249Z,4.65
2023-05-30T11:54:50.125Z,4.87
2023-05-30T11:55:53.054Z,4.80
2023-05-30T11:56:58.835Z,4.72
2023-05-30T11:58:01.827Z,4.32
2023-05-30T11:59:04.959Z,4.43
2023-05-30T12:00:16.033Z,4.62
2023-05-30T12:01:19.119Z,4.75
2023-05-30T12:02:28.434Z,4.12
2023-05-30T12:03:33.130Z,4.55
2023-05-30T12:04:39.010Z,4.40
2023-05-30T12:05:42.098Z,4.37
2023-05-30T12:06:47.735Z,4.60
2023-05-30T12:07:53.168Z,4.18
2023-05-30T12:08:56.372Z,4.35
2023-05-30T12:09:59.502Z,4.10
2023-05-30T12:11:02.682Z,4.50
2023-05-30T12:12:10.577Z,4.22
2023-05-30T12:13:14.120Z,4.05
2023-05-30T12:14:17.072Z,4.32
2023-05-30T12:15:20.138Z,4.47
2023-05-30T12:16:23.135Z,4.20
2023-05-30T12:17:26.453Z,4.68
2023-05-30T12:18:29.594Z,4.37
2023-05-30T12:19:32.642Z,4.20
2023-05-30T12:20:46.150Z,4.30
2023-05-30T12:21:53.039Z,4.25
2023-05-30T12:22:56.688Z,4.40
2023-05-30T12:24:08.661Z,4.12
2023-05-30T12:25:13.365Z,4.97
2023-05-30T12:26:19.792Z,4.50
2023-05-30T12:27:24.630Z,4.07
2023-05-30T12:28:27.594Z,4.12
2023-05-30T12:29:33.892Z,4.30
2023-05-30T12:30:39.313Z,4.68
2023-05-30T12:31:42.517Z,4.40
2023-05-30T12:32:48.854Z,4.78
2023-05-30T12:33:52.082Z,4.12
2023-05-30T12:34:59.616Z,4.45
2023-05-30T12:36:02.565Z,4.28
2023-05-30T12:37:09.118Z,4.80
2023-05-30T12:38:19.721Z,4.32
2023-05-30T12:39:22.692Z,4.28
2023-05-30T12:40:28.968Z,4.90
2023-05-30T12:41:32.799Z,4.12
2023-05-30T12:42:39.456Z,4.72
2023-05-30T12:43:43.342Z,4.28
2023-05-30T12:44:49.564Z,4.28
2023-05-30T12:45:52.622Z,4.70
2023-05-30T12:47:03.282Z,4.60
2023-05-30T12:48:06.361Z,4.78
2023-05-30T12:49:10.035Z,4.53
2023-05-30T12:50:13.658Z,4.28
2023-05-30T12:51:16.782Z,4.28
2023-05-30T12:52:22.125Z,4.65
2023-05-30T12:53:25.157Z,4.85
2023-05-30T12:54:28.290Z,4.80
2023-05-30T12:55:31.614Z,4.53
2023-05-30T12:56:34.546Z,4.45
2023-05-30T12:57:37.474Z,4.78
2023-05-30T12:58:40.352Z,4.50
2023-05-30T12:59:43.351Z,4.53
2023-05-30T13:00:46.234Z,5.53
2023-05-30T13:01:49.356Z,4.45
2023-05-30T13:02:52.950Z,4.65
2023-05-30T13:03:56.247Z,4.53
2023-05-30T13:04:59.299Z,4.55
2023-05-30T13:06:02.253Z,5.15
2023-05-30T13:07:06.215Z,5.10
2023-05-30T13:08:09.187Z,4.75
2023-05-30T13:09:13.153Z,4.65
2023-05-30T13:10:16.187Z,4.85
2023-05-30T13:11:19.136Z,4.50
2023-05-30T13:12:22.066Z,4.50
2023-05-30T13:13:25.222Z,4.62
2023-05-30T13:14:28.092Z,4.43
2023-05-30T13:15:31.357Z,4.75
2023-05-30T13:16:38.789Z,4.82
2023-05-30T13:17:42.825Z,4.62
2023-05-30T13:18:45.817Z,4.95
2023-05-30T13:19:48.702Z,5.22
2023-05-30T13:20:51.755Z,4.80
2023-05-30T13:21:54.720Z,4.40
2023-05-30T13:22:58.781Z,4.85
2023-05-30T13:24:01.738Z,4.85
2023-05-30T13:25:04.986Z,4.97
2023-05-30T13:26:10.465Z,5.25
2023-05-30T13:27:13.390Z,5.10
2023-05-30T13:28:16.507Z,4.78
2023-05-30T13:29:19.646Z,4.43
2023-05-30T13:30:22.530Z,4.80
2023-05-30T13:31:26.435Z,4.72
2023-05-30T13:32:29.504Z,4.57
2023-05-30T13:33:34.067Z,4.95
2023-05-30T13:34:37.903Z,4.87
2023-05-30T13:35:41.198Z,4.72
2023-05-30T13:36:44.734Z,4.50
2023-05-30T13:37:47.657Z,4.55
2023-05-30T13:38:51.188Z,4.50
2023-05-30T13:39:54.280Z,5.12
2023-05-30T13:40:57.619Z,4.37
2023-05-30T13:42:00.990Z,4.62
2023-05-30T13:43:03.931Z,4.85
2023-05-30T13:44:07.028Z,4.82
2023-05-30T13:45:10.304Z,4.78
2023-05-30T13:46:13.282Z,4.60
2023-05-30T13:47:16.317Z,4.60
2023-05-30T13:48:23.246Z,4.28
2023-05-30T13:49:34.123Z,5.35
2023-05-30T13:50:38.975Z,4.82
2023-05-30T13:51:43.742Z,4.57
2023-05-30T13:52:48.602Z,4.82
2023-05-30T13:54:01.253Z,5.25
2023-05-30T13:55:07.001Z,5.12
2023-05-30T13:56:12.097Z,4.65
2023-05-30T13:57:14.986Z,5.65
2023-05-30T13:58:18.112Z,4.70
2023-05-30T13:59:21.116Z,5.00
2023-05-30T14:00:24.259Z,5.55
2023-05-30T14:01:33.669Z,4.85
2023-05-30T14:02:36.754Z,5.05
2023-05-30T14:03:39.815Z,4.90
2023-05-30T14:04:44.319Z,5.03
2023-05-30T14:05:47.561Z,4.47
2023-05-30T14:06:52.522Z,4.90
2023-05-30T14:07:55.376Z,5.57
2023-05-30T14:08:58.206Z,4.57
2023-05-30T14:10:01.134Z,5.12
2023-05-30T14:11:06.111Z,5.20
2023-05-30T14:12:09.470Z,4.72
2023-05-30T14:13:13.780Z,4.87
2023-05-30T14:14:18.960Z,5.00
2023-05-30T14:15:22.711Z,5.10
2023-05-30T14:16:25.830Z,4.62
2023-05-30T14:17:28.720Z,5.00
2023-05-30T14:18:31.875Z,4.87
2023-05-30T14:19:34.962Z,5.10
2023-05-30T14:20:37.939Z,5.03
2023-05-30T14:21:41.084Z,4.87
2023-05-30T14:22:44.639Z,5.10
2023-05-30T14:23:47.707Z,5.00
2023-05-30T14:24:51.044Z,4.80
2023-05-30T14:25:53.866Z,5.15
2023-05-30T14:26:56.910Z,5.20